createdAt,value
2023-02-11T00:01:49.072Z,84.97
2023-02-11T00:04:18.730Z,79.92
2023-02-11T00:06:48.054Z,84.40
2023-02-11T00:09:17.498Z,70.62
2023-02-11T00:11:46.829Z,82.73
2023-02-11T00:14:16.353Z,80.75
2023-02-11T00:16:45.709Z,76.55
2023-02-11T00:19:15.088Z,83.20
2023-02-11T00:21:44.403Z,85.17
2023-02-11T00:24:13.769Z,98.72
2023-02-11T00:26:43.087Z,78.12
2023-02-11T00:29:12.435Z,79.35
2023-02-11T00:31:45.757Z,90.87
2023-02-11T00:34:15.366Z,75.65
2023-02-11T00:36:44.708Z,94.03
2023-02-11T00:39:14.054Z,78.52
2023-02-11T00:41:43.389Z,104.27
2023-02-11T00:44:14.476Z,77.03
2023-02-11T00:46:43.966Z,88.85
2023-02-11T00:49:13.350Z,80.00
2023-02-11T00:51:43.367Z,84.85
2023-02-11T00:54:12.854Z,80.33
2023-02-11T00:56:42.240Z,76.00
2023-02-11T00:59:11.674Z,86.23
2023-02-11T01:01:41.197Z,81.60
2023-02-11T01:04:11.224Z,84.28
2023-02-11T01:06:40.532Z,88.45
2023-02-11T01:09:10.021Z,92.25
2023-02-11T01:11:39.321Z,80.13
2023-02-11T01:14:08.931Z,84.67
2023-02-11T01:16:38.240Z,80.22
2023-02-11T01:19:07.819Z,94.97
2023-02-11T01:21:37.258Z,97.47
2023-02-11T01:24:06.717Z,82.10
2023-02-11T01:26:38.001Z,71.80
2023-02-11T01:29:07.321Z,72.10
2023-02-11T01:31:37.362Z,71.85
2023-02-11T01:34:06.719Z,79.62
2023-02-11T01:36:37.905Z,81.47
2023-02-11T01:39:08.758Z,84.37
2023-02-11T01:41:38.313Z,76.92
2023-02-11T01:44:29.033Z,72.63
2023-02-11T01:46:58.450Z,80.97
2023-02-11T01:49:33.102Z,77.12
2023-02-11T01:52:08.429Z,94.90
2023-02-11T01:54:58.421Z,74.50
2023-02-11T01:57:31.049Z,73.35
2023-02-11T02:00:12.394Z,70.72
2023-02-11T02:03:02.903Z,74.27
2023-02-11T02:05:35.267Z,85.20
2023-02-11T02:08:16.515Z,91.15
2023-02-11T02:10:48.000Z,82.25
2023-02-11T02:13:18.441Z,90.03
2023-02-11T02:15:53.665Z,94.67
2023-02-11T02:18:38.564Z,81.95
2023-02-11T02:21:34.914Z,79.47
2023-02-11T02:24:14.234Z,73.42
2023-02-11T02:26:58.673Z,89.63
2023-02-11T02:29:47.850Z,80.38
2023-02-11T02:32:32.158Z,84.85
2023-02-11T02:35:22.828Z,77.65
2023-02-11T02:37:58.001Z,78.22
2023-02-11T02:40:39.113Z,81.57
2023-02-11T02:43:10.741Z,77.17
2023-02-11T02:45:40.171Z,70.32
2023-02-11T02:48:24.437Z,74.97
2023-02-11T02:51:02.352Z,97.62
2023-02-11T02:54:09.536Z,74.92
2023-02-11T02:56:47.671Z,65.72
2023-02-11T02:59:38.235Z,84.07
2023-02-11T03:02:22.624Z,87.00
2023-02-11T03:04:55.008Z,82.92
2023-02-11T03:07:27.508Z,80.90
2023-02-11T03:09:59.896Z,81.37
2023-02-11T03:12:32.540Z,71.40
2023-02-11T03:15:05.055Z,74.95
2023-02-11T03:17:36.775Z,98.40
2023-02-11T03:20:08.736Z,80.38
2023-02-11T03:22:53.352Z,82.33
2023-02-11T03:25:25.474Z,87.50
2023-02-11T03:28:01.371Z,85.03
2023-02-11T03:30:51.525Z,79.60
2023-02-11T03:33:30.012Z,91.87
2023-02-11T03:36:05.321Z,78.12
2023-02-11T03:38:37.705Z,86.30
2023-02-11T03:41:08.910Z,85.55
2023-02-11T03:43:41.381Z,96.22
2023-02-11T03:46:13.192Z,88.33
2023-02-11T03:48:48.561Z,87.62
2023-02-11T03:51:19.057Z,75.95
2023-02-11T03:53:49.371Z,90.97
2023-02-11T03:58:49.932Z,79.50
2023-02-11T04:01:19.352Z,86.65
2023-02-11T04:03:48.663Z,74.22
2023-02-11T04:06:18.005Z,105.60
2023-02-11T04:08:47.355Z,90.47
2023-02-11T04:11:16.741Z,96.57
2023-02-11T04:13:46.119Z,93.47
2023-02-11T04:16:15.520Z,75.00
2023-02-11T04:18:44.834Z,89.28
2023-02-11T04:21:14.253Z,99.05
2023-02-11T04:23:44.598Z,97.50
2023-02-11T04:28:42.429Z,78.10
2023-02-11T04:31:12.736Z,92.33
2023-02-11T04:36:10.696Z,95.40
2023-02-11T04:38:40.030Z,96.70
2023-02-11T04:41:09.343Z,121.42
2023-02-11T04:43:38.633Z,83.78
2023-02-11T04:46:08.058Z,86.12
2023-02-11T04:48:37.459Z,85.60
2023-02-11T04:51:07.038Z,116.53
2023-02-11T04:53:36.852Z,99.28
2023-02-11T04:56:06.419Z,86.40
2023-02-11T04:58:35.976Z,80.47
2023-02-11T05:01:10.553Z,86.17
2023-02-11T05:03:40.326Z,75.45
2023-02-11T05:06:11.880Z,65.30
2023-02-11T05:08:41.315Z,84.37
2023-02-11T05:11:19.539Z,85.33
2023-02-11T05:13:49.137Z,81.17
2023-02-11T05:16:19.269Z,90.17
2023-02-11T05:18:52.393Z,68.80
2023-02-11T05:21:21.228Z,81.02
2023-02-11T05:23:50.705Z,89.97
2023-02-11T05:26:20.385Z,77.23
2023-02-11T05:28:50.069Z,106.30
2023-02-11T05:31:19.551Z,81.37
2023-02-11T05:33:49.141Z,72.90
2023-02-11T05:36:18.544Z,82.50
2023-02-11T05:38:47.930Z,86.55
2023-02-11T05:41:17.339Z,64.87
2023-02-11T05:43:48.227Z,98.95
2023-02-11T05:46:18.207Z,101.12
2023-02-11T05:48:47.775Z,85.07
2023-02-11T05:51:17.111Z,77.53
2023-02-11T05:53:46.427Z,73.22
2023-02-11T05:56:15.789Z,75.17
2023-02-11T05:58:45.105Z,71.17
2023-02-11T06:01:14.488Z,76.05
2023-02-11T06:03:43.831Z,77.00
2023-02-11T06:06:14.274Z,69.67
2023-02-11T06:08:43.913Z,61.63
2023-02-11T06:11:15.188Z,59.58
2023-02-11T06:13:44.972Z,64.20
2023-02-11T06:16:14.492Z,64.15
2023-02-11T06:18:43.750Z,65.67
2023-02-11T06:21:13.700Z,62.70
2023-02-11T06:23:43.481Z,63.98
2023-02-11T06:26:18.801Z,64.00
2023-02-11T06:28:48.660Z,60.88
2023-02-11T06:31:18.350Z,53.02
2023-02-11T06:33:47.709Z,58.02
2023-02-11T06:36:19.523Z,64.95
2023-02-11T06:38:49.709Z,59.38
2023-02-11T06:41:22.880Z,55.33
2023-02-11T06:43:53.839Z,59.67
2023-02-11T06:46:23.514Z,67.53
2023-02-11T06:48:52.843Z,56.70
2023-02-11T06:51:22.217Z,72.47
2023-02-11T06:53:51.620Z,62.38
2023-02-11T06:56:22.903Z,69.20
2023-02-11T06:58:55.990Z,53.48
2023-02-11T07:01:26.537Z,56.40
2023-02-11T07:03:55.917Z,65.22
2023-02-11T07:06:27.961Z,64.80
2023-02-11T07:08:57.825Z,75.15
2023-02-11T07:11:29.321Z,56.58
2023-02-11T07:14:04.270Z,47.55
2023-02-11T07:16:34.146Z,54.93
2023-02-11T07:19:03.511Z,74.12
2023-02-11T07:21:32.944Z,50.17
2023-02-11T07:24:02.499Z,75.10
2023-02-11T07:26:31.879Z,75.63
2023-02-11T07:29:01.353Z,66.97
2023-02-11T07:31:32.574Z,54.50
2023-02-11T07:34:03.021Z,68.55
2023-02-11T07:39:02.667Z,60.73
2023-02-11T07:41:32.359Z,55.20
2023-02-11T07:44:04.190Z,47.98
2023-02-11T07:46:35.575Z,65.65
2023-02-11T07:49:04.993Z,59.48
2023-02-11T07:51:34.341Z,57.43
2023-02-11T07:54:03.781Z,46.42
2023-02-11T07:56:34.262Z,43.20
2023-02-11T07:59:05.163Z,64.60
2023-02-11T08:01:35.188Z,43.10
2023-02-11T08:04:04.980Z,54.40
2023-02-11T08:06:36.023Z,37.40
2023-02-11T08:09:07.949Z,36.88
2023-02-11T08:11:37.496Z,38.20
2023-02-11T08:14:06.912Z,48.08
2023-02-11T08:16:38.841Z,57.47
2023-02-11T08:19:10.991Z,36.53
2023-02-11T08:21:41.541Z,27.27
2023-02-11T08:24:11.069Z,28.70
2023-02-11T08:26:41.003Z,33.53
2023-02-11T08:29:13.174Z,27.67
2023-02-11T08:31:45.592Z,25.97
2023-02-11T08:34:17.513Z,28.83
2023-02-11T08:36:48.206Z,23.35
2023-02-11T08:39:21.152Z,33.05
2023-02-11T08:41:54.041Z,27.95
2023-02-11T08:44:24.950Z,22.90
2023-02-11T08:46:54.699Z,32.63
2023-02-11T08:49:24.550Z,26.82
2023-02-11T08:51:55.563Z,24.80
2023-02-11T08:54:24.945Z,29.05
2023-02-11T08:56:54.547Z,31.50
2023-02-11T08:59:24.176Z,29.48
2023-02-11T09:01:53.631Z,16.50
2023-02-11T09:04:23.007Z,23.35
2023-02-11T09:06:52.441Z,30.97
2023-02-11T09:09:22.112Z,31.60
2023-02-11T09:11:51.523Z,39.18
2023-02-11T09:14:23.156Z,26.27
2023-02-11T09:16:53.271Z,30.23
2023-02-11T09:19:23.076Z,27.48
2023-02-11T09:21:52.504Z,25.57
2023-02-11T09:24:21.820Z,28.60
2023-02-11T09:26:51.394Z,26.12
2023-02-11T09:29:20.696Z,37.33
2023-02-11T09:31:50.497Z,29.48
2023-02-11T09:34:19.866Z,31.93
2023-02-11T09:36:49.320Z,24.10
2023-02-11T09:39:20.644Z,25.03
2023-02-11T09:42:11.065Z,30.17
2023-02-11T09:47:31.132Z,26.70
2023-02-11T09:50:09.766Z,25.40
2023-02-11T09:52:42.227Z,20.35
2023-02-11T09:55:36.016Z,28.15
2023-02-11T09:58:08.431Z,27.07
2023-02-11T10:01:10.986Z,21.25
2023-02-11T10:04:05.105Z,35.13
2023-02-11T10:06:43.399Z,24.92
2023-02-11T10:09:30.865Z,36.45
2023-02-11T10:12:32.140Z,20.37
2023-02-11T10:15:24.295Z,21.35
2023-02-11T10:18:13.668Z,24.05
2023-02-11T10:20:51.631Z,29.15
2023-02-11T10:23:26.849Z,25.45
2023-02-11T10:25:58.906Z,24.27
2023-02-11T10:28:36.545Z,26.60
2023-02-11T10:31:15.858Z,21.95
2023-02-11T10:34:03.449Z,17.65
2023-02-11T10:36:35.750Z,24.23
2023-02-11T10:39:13.680Z,22.52
2023-02-11T10:41:46.187Z,20.10
2023-02-11T10:44:24.276Z,19.98
2023-02-11T10:46:54.748Z,30.90
2023-02-11T10:49:39.406Z,18.40
2023-02-11T10:52:14.051Z,17.23
2023-02-11T10:54:43.373Z,16.52
2023-02-11T10:57:15.827Z,14.18
2023-02-11T10:59:45.389Z,30.30
2023-02-11T11:02:28.245Z,23.52
2023-02-11T11:04:59.551Z,20.32
2023-02-11T11:07:31.111Z,18.10
2023-02-11T11:10:06.505Z,13.75
2023-02-11T11:12:41.844Z,26.95
2023-02-11T11:15:26.054Z,18.45
2023-02-11T11:18:24.599Z,13.93
2023-02-11T11:20:57.418Z,15.80
2023-02-11T11:23:28.754Z,13.93
2023-02-11T11:26:10.480Z,19.12
2023-02-11T11:29:00.253Z,14.35
2023-02-11T11:31:53.328Z,14.07
2023-02-11T11:34:25.884Z,19.00
2023-02-11T11:36:58.439Z,10.68
2023-02-11T11:39:34.054Z,19.77
2023-02-11T11:42:06.199Z,17.67
2023-02-11T11:44:38.220Z,23.65
2023-02-11T11:47:16.638Z,21.25
2023-02-11T11:50:16.392Z,14.53
2023-02-11T11:52:51.532Z,21.40
2023-02-11T11:55:29.645Z,17.50
2023-02-11T11:57:59.828Z,16.02
2023-02-11T12:00:32.395Z,17.98
2023-02-11T12:03:25.504Z,12.70
2023-02-11T12:05:57.995Z,16.57
2023-02-11T12:08:33.299Z,18.90
2023-02-11T12:11:12.002Z,20.08
2023-02-11T12:13:56.446Z,18.82
2023-02-11T12:16:41.067Z,18.95
2023-02-11T12:19:19.328Z,16.42
2023-02-11T12:21:54.439Z,16.52
2023-02-11T12:24:32.718Z,16.95
2023-02-11T12:27:09.693Z,19.02
2023-02-11T12:30:00.186Z,23.12
2023-02-11T12:35:15.774Z,28.35
2023-02-11T12:38:00.198Z,17.23
2023-02-11T12:40:44.766Z,22.35
2023-02-11T12:43:23.240Z,20.45
2023-02-11T12:46:06.256Z,19.15
2023-02-11T12:48:56.805Z,19.60
2023-02-11T12:51:34.888Z,26.80
2023-02-11T12:54:22.426Z,17.62
2023-02-11T12:57:11.031Z,26.05
2023-02-11T12:59:46.458Z,15.83
2023-02-11T13:02:21.815Z,22.52
2023-02-11T13:04:54.267Z,23.32
2023-02-11T13:07:35.580Z,26.35
2023-02-11T13:10:16.887Z,21.48
2023-02-11T13:13:07.237Z,22.07
2023-02-11T13:18:14.116Z,18.48
2023-02-11T13:20:46.642Z,29.82
2023-02-11T13:23:30.561Z,26.05
2023-02-11T13:26:10.658Z,21.80
2023-02-11T13:28:49.653Z,29.25
2023-02-11T13:31:20.491Z,16.87
2023-02-11T13:33:50.014Z,21.65
2023-02-11T13:36:24.881Z,15.30
2023-02-11T13:38:57.378Z,16.42
2023-02-11T13:41:32.843Z,19.92
2023-02-11T13:44:15.912Z,15.80
2023-02-11T13:47:04.741Z,17.87
2023-02-11T13:49:42.821Z,24.70
2023-02-11T13:52:37.518Z,23.77
2023-02-11T13:55:19.790Z,20.02
2023-02-11T13:58:10.674Z,27.17
2023-02-11T14:00:51.942Z,27.60
2023-02-11T14:03:45.251Z,22.58
2023-02-11T14:06:42.856Z,19.73
2023-02-11T14:09:19.090Z,18.12
2023-02-11T14:11:52.344Z,33.53
2023-02-11T14:14:29.876Z,24.25
2023-02-11T14:17:14.483Z,11.73
2023-02-11T14:19:46.364Z,20.70
2023-02-11T14:22:33.631Z,20.65
2023-02-11T14:25:08.029Z,27.27
2023-02-11T14:27:58.214Z,18.73
2023-02-11T14:30:49.141Z,15.03
2023-02-11T14:33:38.146Z,22.90
2023-02-11T14:36:13.376Z,21.42
2023-02-11T14:39:05.130Z,26.17
2023-02-11T14:41:43.803Z,15.00
2023-02-11T14:44:16.338Z,18.67
2023-02-11T14:46:48.829Z,15.83
2023-02-11T14:49:33.332Z,21.57
2023-02-11T14:52:23.943Z,17.15
2023-02-11T14:54:55.144Z,25.15
2023-02-11T14:57:24.731Z,23.65
2023-02-11T15:00:03.074Z,18.60
2023-02-11T15:02:37.860Z,25.52
2023-02-11T15:05:19.380Z,21.17
2023-02-11T15:07:57.689Z,25.50
2023-02-11T15:10:35.809Z,17.67
2023-02-11T15:13:06.567Z,20.70
2023-02-11T15:15:38.115Z,19.30
2023-02-11T15:18:09.707Z,15.93
2023-02-11T15:20:40.634Z,16.05
2023-02-11T15:23:15.147Z,18.07
2023-02-11T15:25:50.201Z,17.85
2023-02-11T15:28:31.520Z,11.83
2023-02-11T15:31:07.414Z,18.40
2023-02-11T15:33:37.136Z,16.62
2023-02-11T15:36:07.205Z,8.68
2023-02-11T15:38:36.717Z,22.30
2023-02-11T15:41:07.866Z,24.40
2023-02-11T15:43:48.806Z,23.27
2023-02-11T15:46:20.876Z,19.50
2023-02-11T15:48:55.624Z,22.62
2023-02-11T15:51:35.022Z,21.07
2023-02-11T15:54:07.566Z,23.40
2023-02-11T15:56:44.155Z,17.48
2023-02-11T15:59:30.570Z,24.85
2023-02-11T16:02:03.020Z,18.80
2023-02-11T16:04:32.852Z,19.45
2023-02-11T16:07:02.968Z,21.97
2023-02-11T16:09:35.616Z,16.55
2023-02-11T16:12:27.483Z,24.30
2023-02-11T16:14:58.627Z,19.60
2023-02-11T16:17:30.159Z,25.40
2023-02-11T16:19:59.770Z,18.85
2023-02-11T16:22:33.253Z,22.98
2023-02-11T16:25:03.331Z,29.12
2023-02-11T16:27:43.205Z,17.90
2023-02-11T16:30:36.571Z,21.12
2023-02-11T16:33:06.288Z,22.48
2023-02-11T16:35:37.473Z,22.60
2023-02-11T16:38:06.823Z,26.85
2023-02-11T16:40:36.679Z,25.68
2023-02-11T16:43:06.122Z,22.95
2023-02-11T16:45:40.383Z,26.10
2023-02-11T16:48:11.105Z,23.32
2023-02-11T16:50:43.493Z,26.68
2023-02-11T16:53:13.423Z,38.25
2023-02-11T16:55:42.737Z,24.80
2023-02-11T16:58:12.176Z,24.43
2023-02-11T17:00:41.947Z,33.57
2023-02-11T17:03:14.220Z,34.53
2023-02-11T17:05:54.973Z,35.30
2023-02-11T17:08:17.295Z,34.67
2023-02-11T17:10:46.696Z,26.37
2023-02-11T17:13:16.126Z,30.25
2023-02-11T17:15:45.585Z,36.67
2023-02-11T17:18:15.433Z,30.57
2023-02-11T17:20:45.070Z,31.15
2023-02-11T17:23:14.567Z,26.40
2023-02-11T17:25:43.856Z,27.63
2023-02-11T17:28:13.311Z,27.55
2023-02-11T17:30:44.122Z,38.02
2023-02-11T17:33:13.621Z,45.73
2023-02-11T17:35:43.212Z,26.23
2023-02-11T17:38:12.626Z,34.20
2023-02-11T17:40:42.138Z,26.23
2023-02-11T17:43:11.494Z,32.73
2023-02-11T17:45:43.958Z,24.60
2023-02-11T17:48:13.283Z,40.52
2023-02-11T17:50:42.730Z,36.25
2023-02-11T17:53:12.266Z,15.77
2023-02-11T17:55:41.887Z,28.50
2023-02-11T17:58:11.382Z,26.77
2023-02-11T18:00:40.820Z,39.60
2023-02-11T18:03:10.395Z,30.37
2023-02-11T18:05:40.124Z,30.00
2023-02-11T18:08:09.602Z,55.58
2023-02-11T18:10:42.797Z,51.50
2023-02-11T18:13:12.212Z,36.90
2023-02-11T18:15:41.521Z,29.60
2023-02-11T18:18:11.044Z,43.65
2023-02-11T18:20:42.160Z,34.10
2023-02-11T18:23:12.169Z,29.90
2023-02-11T18:25:44.913Z,33.10
2023-02-11T18:28:14.329Z,31.55
2023-02-11T18:30:43.738Z,35.38
2023-02-11T18:33:14.408Z,43.00
2023-02-11T18:35:45.520Z,31.00
2023-02-11T18:38:15.823Z,32.53
2023-02-11T18:40:50.353Z,38.90
2023-02-11T18:43:21.218Z,40.10
2023-02-11T18:45:52.080Z,42.30
2023-02-11T18:48:21.588Z,26.55
2023-02-11T18:50:50.960Z,31.52
2023-02-11T18:53:20.668Z,48.35
2023-02-11T18:55:50.476Z,25.32
2023-02-11T18:58:21.308Z,31.62
2023-02-11T19:00:51.466Z,34.33
2023-02-11T19:03:21.266Z,50.28
2023-02-11T19:05:51.253Z,35.60
2023-02-11T19:08:20.738Z,43.10
2023-02-11T19:10:50.105Z,50.03
2023-02-11T19:13:19.638Z,32.97
2023-02-11T19:15:49.016Z,47.15
2023-02-11T19:18:18.396Z,69.25
2023-02-11T19:20:47.776Z,47.43
2023-02-11T19:23:17.218Z,43.80
2023-02-11T19:25:48.551Z,54.55
2023-02-11T19:28:18.003Z,27.37
2023-02-11T19:30:49.796Z,38.87
2023-02-11T19:33:19.262Z,31.10
2023-02-11T19:35:48.755Z,35.93
2023-02-11T19:38:19.088Z,23.83
2023-02-11T19:40:51.517Z,33.98
2023-02-11T19:43:20.887Z,45.40
2023-02-11T19:45:50.620Z,20.00
2023-02-11T19:48:20.262Z,35.38
2023-02-11T19:50:49.645Z,40.98
2023-02-11T19:53:19.158Z,29.57
2023-02-11T19:55:49.781Z,61.40
2023-02-11T19:58:19.443Z,42.55
2023-02-11T20:00:48.752Z,79.07
2023-02-11T20:03:18.137Z,107.80
2023-02-11T20:05:47.792Z,29.32
2023-02-11T20:08:17.400Z,42.00
2023-02-11T20:10:46.729Z,51.30
2023-02-11T20:13:16.180Z,47.85
2023-02-11T20:15:45.518Z,38.77
2023-02-11T20:18:14.853Z,42.55
2023-02-11T20:20:44.163Z,40.55
2023-02-11T20:23:13.521Z,36.53
2023-02-11T20:25:42.953Z,45.55
2023-02-11T20:28:12.356Z,45.23
2023-02-11T20:30:41.875Z,46.85
2023-02-11T20:33:11.268Z,33.50
2023-02-11T20:35:40.554Z,36.65
2023-02-11T20:38:10.033Z,32.78
2023-02-11T20:40:39.337Z,29.73
2023-02-11T20:43:09.174Z,40.38
2023-02-11T20:45:38.495Z,34.40
2023-02-11T20:48:07.949Z,49.95
2023-02-11T20:50:37.352Z,50.10
2023-02-11T20:53:07.345Z,47.23
2023-02-11T20:55:39.653Z,53.33
2023-02-11T20:58:09.243Z,43.92
2023-02-11T21:00:38.762Z,43.85
2023-02-11T21:03:08.147Z,36.87
2023-02-11T21:05:37.526Z,40.78
2023-02-11T21:08:06.921Z,38.87
2023-02-11T21:10:36.288Z,51.60
2023-02-11T21:13:05.774Z,37.05
2023-02-11T21:15:35.128Z,38.23
2023-02-11T21:18:04.622Z,43.92
2023-02-11T21:20:34.115Z,51.70
2023-02-11T21:23:03.434Z,58.53
2023-02-11T21:25:32.873Z,41.02
2023-02-11T21:28:02.350Z,58.40
2023-02-11T21:30:31.878Z,38.50
2023-02-11T21:33:01.349Z,43.53
2023-02-11T21:35:32.980Z,33.20
2023-02-11T21:38:02.461Z,52.20
2023-02-11T21:40:31.849Z,52.40
2023-02-11T21:43:01.245Z,61.83
2023-02-11T21:45:32.379Z,48.00
2023-02-11T21:48:01.854Z,41.10
2023-02-11T21:50:32.111Z,44.27
2023-02-11T21:53:01.620Z,34.95
2023-02-11T21:55:30.979Z,47.33
2023-02-11T21:58:00.466Z,37.03
2023-02-11T22:00:30.305Z,46.53
2023-02-11T22:02:59.876Z,41.75
2023-02-11T22:05:29.389Z,47.43
2023-02-11T22:07:58.701Z,46.83
2023-02-11T22:10:28.121Z,35.40
2023-02-11T22:12:57.488Z,36.97
2023-02-11T22:15:26.879Z,38.73
2023-02-11T22:17:56.257Z,37.33
2023-02-11T22:20:25.693Z,27.32
2023-02-11T22:22:55.048Z,32.47
2023-02-11T22:25:24.422Z,40.52
2023-02-11T22:27:53.796Z,38.63
2023-02-11T22:30:23.225Z,35.45
2023-02-11T22:32:52.532Z,37.70
2023-02-11T22:35:21.956Z,37.38
2023-02-11T22:37:51.264Z,34.27
2023-02-11T22:40:20.864Z,37.10
2023-02-11T22:42:50.271Z,38.75
2023-02-11T22:45:19.708Z,39.13
2023-02-11T22:47:49.054Z,45.35
2023-02-11T22:50:18.586Z,41.48
2023-02-11T22:52:47.877Z,40.77
2023-02-11T22:55:17.311Z,31.25
2023-02-11T22:57:46.631Z,36.10
2023-02-11T23:00:17.285Z,38.05
2023-02-11T23:02:46.695Z,36.60
2023-02-11T23:05:16.140Z,35.63
2023-02-11T23:07:45.521Z,37.47
2023-02-11T23:10:15.051Z,29.80
2023-02-11T23:12:45.289Z,42.67
2023-02-11T23:15:14.732Z,40.35
2023-02-11T23:17:44.121Z,58.33
2023-02-11T23:20:13.783Z,50.30
2023-02-11T23:22:43.190Z,46.55
2023-02-11T23:25:12.643Z,43.85
2023-02-11T23:27:42.241Z,39.50
2023-02-11T23:30:12.212Z,52.20
2023-02-11T23:32:41.586Z,23.18
2023-02-11T23:35:10.945Z,32.78
2023-02-11T23:37:40.323Z,22.80
2023-02-11T23:40:10.191Z,39.75
2023-02-11T23:42:39.579Z,53.48
2023-02-11T23:45:09.569Z,31.07
2023-02-11T23:47:39.859Z,39.83
2023-02-11T23:52:38.657Z,43.75
2023-02-11T23:55:08.567Z,28.47
2023-02-11T23:57:38.159Z,26.73
